createdAt,value
2023-07-18T00:00:22.887Z,8.57
2023-07-18T00:06:17.980Z,8.57
2023-07-18T00:11:39.204Z,8.38
2023-07-18T00:16:56.074Z,8.38
2023-07-18T00:22:12.206Z,8.5
2023-07-18T00:27:28.975Z,8.5
2023-07-18T00:32:48.669Z,8.59
2023-07-18T00:38:05.787Z,8.59
2023-07-18T00:43:21.941Z,8.67
2023-07-18T00:48:38.188Z,8.67
2023-07-18T00:53:54.562Z,8.52
2023-07-18T00:59:10.326Z,8.52
2023-07-18T01:05:12.128Z,8.56
2023-07-18T01:10:28.233Z,8.42
2023-07-18T01:15:47.159Z,8.42
2023-07-18T01:21:08.658Z,8.6
2023-07-18T01:26:56.342Z,8.6
2023-07-18T01:32:15.062Z,8.44
2023-07-18T01:37:33.801Z,8.44
2023-07-18T01:42:55.179Z,8.54
2023-07-18T01:48:11.707Z,8.54
2023-07-18T01:53:32.790Z,8.34
2023-07-18T01:59:19.383Z,8.34
2023-07-18T02:01:46.776Z,8.34
2023-07-18T02:06:56.333Z,8.33
2023-07-18T02:12:12.535Z,8.64
2023-07-18T02:18:19.366Z,8.64
2023-07-18T02:23:37.918Z,8.64
2023-07-18T02:28:54.333Z,8.64
2023-07-18T02:34:09.639Z,8.5
2023-07-18T02:39:26.078Z,8.5
2023-07-18T02:44:42.655Z,8.49
2023-07-18T02:45:57.800Z,8.49
2023-07-18T02:51:05.963Z,8.35
2023-07-18T02:56:24.665Z,8.35
2023-07-18T03:01:42.468Z,8.44
2023-07-18T03:06:59.528Z,8.44
2023-07-18T03:12:15.789Z,8.44
2023-07-18T03:17:38.577Z,8.44
2023-07-18T03:22:58.500Z,8.55
2023-07-18T03:28:17.628Z,8.55
2023-07-18T03:33:56.175Z,8.45
2023-07-18T03:39:38.948Z,8.45
2023-07-18T03:45:08.855Z,8.39
2023-07-18T03:50:25.126Z,8.44
2023-07-18T03:55:47.077Z,8.44
2023-07-18T04:01:09.390Z,8.45
2023-07-18T04:06:27.241Z,8.45
2023-07-18T04:12:34.448Z,8.36
2023-07-18T04:15:29.967Z,8.36
2023-07-18T04:20:32.362Z,8.46
2023-07-18T04:25:52.530Z,8.46
2023-07-18T04:31:12.622Z,8.49
2023-07-18T04:36:28.260Z,8.49
2023-07-18T04:41:56.425Z,8.64
2023-07-18T04:47:01.723Z,8.64
2023-07-18T04:52:17.749Z,8.41
2023-07-18T04:57:33.834Z,8.41
2023-07-18T05:02:51.032Z,8.45
2023-07-18T05:08:42.792Z,8.45
2023-07-18T05:13:59.478Z,8.69
2023-07-18T05:19:15.568Z,8.69
2023-07-18T05:24:32.374Z,8.37
2023-07-18T05:29:50.181Z,8.37
2023-07-18T05:35:06.636Z,8.5
2023-07-18T05:40:24.916Z,8.5
2023-07-18T05:45:40.190Z,9.54
2023-07-18T05:50:55.059Z,10.02
2023-07-18T05:56:10.627Z,10.02
2023-07-18T06:01:27.816Z,8.4
2023-07-18T06:06:47.450Z,8.4
2023-07-18T06:11:58.466Z,8.5
2023-07-18T06:17:15.464Z,8.5
2023-07-18T06:22:29.710Z,8.9
2023-07-18T06:27:45.816Z,8.9
2023-07-18T06:33:02.795Z,8.59
2023-07-18T06:38:18.009Z,8.59
2023-07-18T06:43:36.709Z,8.6
2023-07-18T06:48:53.892Z,8.6
2023-07-18T06:50:41.888Z,8.6
2023-07-18T06:55:51.737Z,8.47
2023-07-18T07:01:48.526Z,8.45
2023-07-18T07:07:06.165Z,8.45
2023-07-18T07:12:38.377Z,8.47
2023-07-18T07:17:42.910Z,8.47
2023-07-18T07:23:41.262Z,8.63
2023-07-18T07:28:58.199Z,8.63
2023-07-18T07:34:13.011Z,8.48
2023-07-18T07:39:28.415Z,8.48
2023-07-18T07:44:45.156Z,8.59
2023-07-18T07:52:26.587Z,8.45
2023-07-18T07:58:32.170Z,8.45
2023-07-18T08:03:42.018Z,8.51
2023-07-18T08:09:05.657Z,8.51
2023-07-18T08:14:16.360Z,8.48
2023-07-18T08:19:35.368Z,8.48
2023-07-18T08:23:17.389Z,8.48
2023-07-18T08:28:25.296Z,8.52
2023-07-18T08:33:44.717Z,8.48
2023-07-18T08:39:11.785Z,8.48
2023-07-18T08:44:18.967Z,8.54
2023-07-18T08:49:37.797Z,8.54
2023-07-18T08:54:51.482Z,8.48
2023-07-18T09:00:07.910Z,8.48
2023-07-18T09:05:27.744Z,8.67
2023-07-18T09:10:44.194Z,8.67
2023-07-18T09:15:59.752Z,8.44
2023-07-18T09:27:19.807Z,8.53
2023-07-18T09:32:47.605Z,8.42
2023-07-18T09:38:09.069Z,8.42
2023-07-18T09:43:24.645Z,8.43
2023-07-18T09:48:52.370Z,8.43
2023-07-18T09:53:56.186Z,8.35
2023-07-18T09:59:15.161Z,8.35
2023-07-18T10:04:29.813Z,8.51
2023-07-18T10:09:46.564Z,8.51
2023-07-18T10:15:05.086Z,8.34
2023-07-18T10:20:20.880Z,8.34
2023-07-18T10:25:36.995Z,8.38
2023-07-18T10:30:53.379Z,8.38
2023-07-18T10:36:17.407Z,8.36
2023-07-18T10:41:31.240Z,8.36
2023-07-18T10:46:49.422Z,8.53
2023-07-18T10:52:02.060Z,8.37
2023-07-18T10:57:18.419Z,8.37
2023-07-18T11:02:36.253Z,8.46
2023-07-18T11:11:05.734Z,8.46
2023-07-18T11:12:51.804Z,8.46
2023-07-18T11:18:01.005Z,8.48
2023-07-18T11:23:17.127Z,8.52
2023-07-18T11:28:57.318Z,8.52
2023-07-18T11:34:12.541Z,8.52
2023-07-18T11:39:30.904Z,8.52
2023-07-18T11:44:47.106Z,8.38
2023-07-18T11:50:03.925Z,8.38
2023-07-18T11:56:09.616Z,8.34
2023-07-18T12:03:58.033Z,8.38
2023-07-18T12:09:21.861Z,8.38
2023-07-18T12:11:10.443Z,8.38
2023-07-18T12:15:54.287Z,8.51
2023-07-18T12:21:16.462Z,8.51
2023-07-18T12:26:28.282Z,8.38
2023-07-18T12:31:42.910Z,8.38
2023-07-18T12:36:42.493Z,8.41
2023-07-18T12:41:58.147Z,8.41
2023-07-18T12:47:15.773Z,8.37
2023-07-18T12:52:32.441Z,8.37
2023-07-18T12:57:49.650Z,8.45
2023-07-18T13:03:06.182Z,8.39
2023-07-18T13:08:22.110Z,8.39
2023-07-18T13:13:40.433Z,8.45
2023-07-18T13:18:55.061Z,8.45
2023-07-18T13:24:11.871Z,8.41
2023-07-18T13:30:45.307Z,8.41
2023-07-18T13:32:26.368Z,8.41
2023-07-18T13:37:35.699Z,8.4
2023-07-18T13:42:54.420Z,8.49
2023-07-18T13:48:10.965Z,8.49
2023-07-18T13:53:25.514Z,8.33
2023-07-18T13:55:13.578Z,8.33
2023-07-18T14:00:27.118Z,8.33
2023-07-18T14:05:39.585Z,8.5
2023-07-18T14:11:23.842Z,8.5
2023-07-18T14:16:42.299Z,8.44
2023-07-18T14:21:57.535Z,8.44
2023-07-18T14:27:16.670Z,8.41
2023-07-18T14:32:32.624Z,8.41
2023-07-18T14:37:53.031Z,8.37
2023-07-18T14:43:10.960Z,8.28
2023-07-18T14:48:26.591Z,8.28
2023-07-18T14:53:45.368Z,8.38
2023-07-18T14:59:03.372Z,8.38
2023-07-18T15:05:02.444Z,8.27
2023-07-18T15:10:22.519Z,8.27
2023-07-18T15:15:39.489Z,8.34
2023-07-18T15:20:59.542Z,8.34
2023-07-18T15:26:14.945Z,8.41
2023-07-18T15:31:31.187Z,8.41
2023-07-18T15:36:49.047Z,8.32
2023-07-18T15:42:05.880Z,8.32
2023-07-18T15:47:24.822Z,8.31
2023-07-18T15:52:41.327Z,8.31
2023-07-18T15:57:56.853Z,8.46
2023-07-18T16:03:14.412Z,8.46
2023-07-18T16:08:36.895Z,8.45
2023-07-18T16:13:50.091Z,8.22
2023-07-18T16:19:06.573Z,8.22
2023-07-18T16:24:23.417Z,8.44
2023-07-18T16:29:39.905Z,8.44
2023-07-18T16:34:56.334Z,8.47
2023-07-18T16:40:28.506Z,8.47
2023-07-18T16:45:44.755Z,8.38
2023-07-18T16:51:04.111Z,8.38
2023-07-18T16:56:22.613Z,8.53
2023-07-18T17:01:37.041Z,8.53
2023-07-18T17:06:54.133Z,8.28
2023-07-18T17:12:10.023Z,8.28
2023-07-18T17:18:11.590Z,8.45
2023-07-18T17:24:09.701Z,8.33
2023-07-18T17:29:28.680Z,8.33
2023-07-18T17:34:44.853Z,8.42
2023-07-18T17:40:03.173Z,8.42
2023-07-18T17:45:15.238Z,8.33
2023-07-18T17:50:32.054Z,8.33
2023-07-18T17:51:45.678Z,8.33
2023-07-18T17:56:57.957Z,8.41
2023-07-18T18:02:12.717Z,8.41
2023-07-18T18:07:27.743Z,8.4
2023-07-18T18:13:10.060Z,8.4
2023-07-18T18:18:25.599Z,8.54
2023-07-18T18:23:42.413Z,8.54
2023-07-18T18:28:55.392Z,8.44
2023-07-18T18:34:13.186Z,8.44
2023-07-18T18:39:31.059Z,8.46
2023-07-18T18:44:45.766Z,8.45
2023-07-18T18:50:03.209Z,8.45
2023-07-18T18:55:34.340Z,8.49
2023-07-18T19:00:37.549Z,8.49
2023-07-18T19:05:53.532Z,8.54
2023-07-18T19:26:56.386Z,8.54
2023-07-18T19:32:16.750Z,8.48
2023-07-18T19:37:33.830Z,8.42
2023-07-18T19:42:51.888Z,8.42
2023-07-18T19:48:09.979Z,8.55
2023-07-18T19:53:26.782Z,8.55
2023-07-18T19:56:00.339Z,8.55
2023-07-18T20:01:09.495Z,8.52
2023-07-18T20:06:25.621Z,8.61
2023-07-18T20:11:40.525Z,8.61
2023-07-18T20:16:56.700Z,8.55
2023-07-18T20:22:13.518Z,8.55
2023-07-18T20:27:30.289Z,8.62
2023-07-18T20:32:46.755Z,8.62
2023-07-18T20:38:03.300Z,8.52
2023-07-18T20:43:20.033Z,8.52
2023-07-18T20:48:36.245Z,8.41
2023-07-18T20:53:53.027Z,8.41
2023-07-18T20:59:09.789Z,8.53
2023-07-18T21:04:27.270Z,8.53
2023-07-18T21:09:46.000Z,8.48
2023-07-18T21:15:02.777Z,8.48
2023-07-18T21:20:19.560Z,8.57
2023-07-18T21:25:36.539Z,8.63
2023-07-18T21:30:55.237Z,8.63
2023-07-18T21:36:22.783Z,8.45
2023-07-18T21:41:38.272Z,8.45
2023-07-18T21:46:54.095Z,8.56
2023-07-18T21:52:09.351Z,8.56
2023-07-18T21:57:25.115Z,8.51
2023-07-18T22:02:41.824Z,8.51
2023-07-18T22:07:57.854Z,8.57
2023-07-18T22:13:12.901Z,8.57
2023-07-18T22:18:29.691Z,8.6
2023-07-18T22:23:46.295Z,8.6
2023-07-18T22:29:02.443Z,8.61
2023-07-18T22:34:18.226Z,8.61
2023-07-18T22:39:43.990Z,8.67
2023-07-18T22:44:47.697Z,8.67
2023-07-18T22:50:04.559Z,8.6
2023-07-18T22:55:20.703Z,8.6
2023-07-18T23:00:37.747Z,8.59
2023-07-18T23:05:52.980Z,8.64
2023-07-18T23:11:15.598Z,8.64
2023-07-18T23:16:31.311Z,8.66
2023-07-18T23:22:15.387Z,8.66
2023-07-18T23:28:06.177Z,8.75
2023-07-18T23:33:26.149Z,8.75
2023-07-18T23:38:46.116Z,8.61
2023-07-18T23:44:07.454Z,8.61
2023-07-18T23:49:28.664Z,8.64
2023-07-18T23:55:21.963Z,8.64
